Flight Track Log - Related Links

Times and Time Zones

All times are in EDT time to prevent confusion due to time zone crossing. See the AAL270 flight status page for this flight to view local times or setup timezone preferences in your user account.

Time Position Orientation Groundspeed Altitude Reporting Facility
EDT Latitude Longitude Course Direction KTS MPH feet Rate Location/Type
Wed 01:38:00 PM 21.2095 -157.5150 108° East  Level FlightAware
Wed 01:39:00 PM 21.1799 -157.3795 100° East  Level FlightAware
Wed 01:40:00 PM 21.1525 -157.2435 105° East  Level FlightAware
Wed 01:40:27 PM 21.0850 -157.6220 75° East 329 379 10,700  Level FlightAware
Wed 01:41:00 PM 21.1478 -157.1090 75° East  Level FlightAware
Wed 01:41:27 PM 21.0390 -157.5290 118° Southeast 362 417 12,500  Level FlightAware
Wed 01:42:22 PM 20.9980 -157.4450 118° Southeast 369 425 14,500 2,031 Climbing FlightAware
Wed 01:43:37 PM 20.9370 -157.3280 119° Southeast 382 440 16,900 1,892 Climbing FlightAware
Wed 01:44:32 PM 20.8860 -157.2330 120° Southeast 391 450 18,600 1,800 Climbing FlightAware
Wed 01:45:07 PM 20.8530 -157.1710 120° Southeast 399 459 19,600 1,600 Climbing FlightAware
Wed 01:45:47 PM 20.8210 -157.0970 115° Southeast 403 464 20,600 1,533 Climbing FlightAware
Wed 01:46:37 PM 20.8000 -156.9970 103° East 414 476 21,900 1,486 Climbing FlightAware
Wed 01:47:32 PM 20.7980 -156.8940 91° East 420 483 23,200 1,429 Climbing FlightAware
Wed 01:48:22 PM 20.7990 -156.7770 89° East 429 494 24,400 758 Climbing FlightAware
Wed 01:49:07 PM 20.7990 -156.6920 90° East 429 494 24,400 821 Level FlightAware
Wed 01:49:57 PM 20.8000 -156.5830 89° East 435 501 25,700 975 Climbing FlightAware
Wed 01:50:27 PM 20.8000 -156.5280 90° East 435 501 25,700 1,200 Level FlightAware
Wed 01:51:22 PM 20.8040 -156.3940 88° East 465 535 27,400 1,667 Climbing FlightAware
Wed 01:51:57 PM 20.8050 -156.3030 89° East 473 544 28,200 1,350 Climbing FlightAware
Wed 01:52:42 PM 20.8060 -156.1960 89° East 483 556 29,200 847 Climbing FlightAware
Wed 01:53:22 PM 20.8080 -156.1140 88° East 485 558 29,400 150 Climbing FlightAware
Wed 01:54:02 PM 20.8090 -156.0330 89° East 485 558 29,400  Level FlightAware
Wed 01:54:52 PM 20.8110 -155.9310 89° East 485 558 29,400  Level FlightAware
Wed 01:55:32 PM 20.8120 -155.8490 89° East 485 558 29,400  Level FlightAware
Wed 01:56:12 PM 20.8130 -155.7680 89° East 485 558 29,400  Level FlightAware
Wed 01:56:52 PM 20.8150 -155.6860 88° East 485 558 29,400 5,673 Level FlightAware
Wed 01:57:07 PM 20.9167 -155.5500 88° East 510 587 34,600 5,040 Climbing Honolulu Center
Wed 01:58:07 PM 20.9333 -155.4167 82° East 500 575 35,700 950 Climbing Honolulu Center
Wed 01:59:07 PM 20.9667 -155.2667 77° East 510 587 36,500 650 Climbing Honolulu Center
Wed 02:00:07 PM 20.9833 -155.1167 83° East 510 587 37,000 248 Climbing Honolulu Center
Wed 02:01:08 PM 21.0167 -154.9500 78° East 520 598 37,000  Level Honolulu Center
Wed 02:02:08 PM 21.0333 -154.8000 83° East 510 587 37,000  Level Honolulu Center
Wed 02:03:08 PM 21.0667 -154.6500 77° East 510 587 37,000  Level Honolulu Center
Wed 02:04:07 PM 21.0833 -154.5000 83° East 510 587 37,000  Level Honolulu Center
Wed 02:05:08 PM 21.1167 -154.3500 77° East 510 587 37,000  Level Honolulu Center
Wed 02:06:08 PM 21.1333 -154.2000 83° East 510 587 37,000  Level Honolulu Center
Wed 02:07:08 PM 21.1500 -154.0500 83° East 500 575 37,000  Level Honolulu Center
Wed 02:08:08 PM 21.1833 -153.9000 77° East 500 575 37,000  Level Honolulu Center
Wed 02:09:08 PM 21.2000 -153.7500 83° East 500 575 37,000  Level Honolulu Center
Wed 02:10:08 PM 21.2167 -153.6167 82° East 500 575 37,000  Level Honolulu Center
Wed 02:11:09 PM 21.2500 -153.4667 77° East 490 564 37,000  Level Honolulu Center
Wed 02:12:08 PM 21.2667 -153.3167 83° East 500 575 37,000  Level Honolulu Center
Wed 02:14:00 PM 21.3031 -153.0589 81° East  Level FlightAware
Wed 02:21:00 PM 21.4361 -152.0912 81° East  Level FlightAware
Wed 02:22:00 PM 21.4546 -151.9528 82° East  Level FlightAware
Wed 02:23:00 PM 21.4731 -151.8143 82° East  Level FlightAware
Wed 02:24:00 PM 21.4914 -151.6759 82° East  Level FlightAware
Wed 02:25:00 PM 21.5096 -151.5374 82° East  Level FlightAware
Wed 02:26:00 PM 21.5597 -151.4127 63° Northeast  Level FlightAware
Wed 02:27:00 PM 21.6185 -151.2879 63° Northeast  Level FlightAware
Wed 02:27:31 PM 21.5500 -151.4667 63° Northeast 476 548 37,000  Level Oakland Oceanic
Wed 02:28:00 PM 21.6771 -151.1629 63° Northeast  Level FlightAware
Wed 02:29:00 PM 21.7358 -151.0377 63° Northeast  Level FlightAware
Wed 02:30:00 PM 21.7943 -150.9124 63° Northeast  Level FlightAware
Wed 02:31:00 PM 21.8527 -150.7870 63° Northeast  Level FlightAware
Wed 02:32:00 PM 21.9110 -150.6616 63° Northeast  Level FlightAware
Wed 02:33:00 PM 22.0851 -150.3198 64° Northeast 476 548 37,000  Level FlightAware
Wed 02:34:00 PM 22.1441 -150.1918 64° Northeast 476 548 37,000  Level FlightAware
Wed 02:35:00 PM 22.2029 -150.0638 64° Northeast 476 548 37,000  Level FlightAware
Wed 02:36:00 PM 22.2617 -149.9356 64° Northeast 476 548 37,000  Level FlightAware
Wed 02:37:00 PM 22.3204 -149.8073 64° Northeast 476 548 37,000  Level FlightAware
Wed 02:38:00 PM 22.3789 -149.6789 64° Northeast 476 548 37,000  Level FlightAware
Wed 02:39:00 PM 22.4374 -149.5504 64° Northeast 476 548 37,000  Level FlightAware
Wed 02:40:00 PM 22.4957 -149.4218 64° Northeast 476 548 37,000  Level FlightAware
Wed 02:41:00 PM 22.5540 -149.2931 64° Northeast 476 548 37,000  Level FlightAware
Wed 02:42:00 PM 22.6122 -149.1643 64° Northeast 476 548 37,000  Level FlightAware
Wed 02:43:00 PM 22.6702 -149.0353 64° Northeast 476 548 37,000  Level FlightAware
Wed 02:44:00 PM 22.7281 -148.9063 64° Northeast 476 548 37,000  Level FlightAware
Wed 02:45:00 PM 22.7860 -148.7771 64° Northeast 476 548 37,000  Level FlightAware
Wed 02:46:00 PM 22.8437 -148.6479 64° Northeast 476 548 37,000  Level FlightAware
Wed 02:47:00 PM 22.9014 -148.5185 64° Northeast 476 548 37,000  Level FlightAware
Wed 02:48:00 PM 22.9589 -148.3890 64° Northeast 476 548 37,000  Level FlightAware
Wed 02:49:00 PM 23.0163 -148.2594 64° Northeast 476 548 37,000  Level FlightAware
Wed 02:50:00 PM 23.0737 -148.1297 64° Northeast 476 548 37,000  Level FlightAware
Wed 02:51:00 PM 23.1309 -147.9999 64° Northeast 476 548 37,000  Level FlightAware
Wed 02:52:00 PM 23.1880 -147.8700 64° Northeast 476 548 37,000  Level FlightAware
Wed 02:53:00 PM 23.2450 -147.7400 65° Northeast 476 548 37,000  Level FlightAware
Wed 02:54:00 PM 23.3019 -147.6098 65° Northeast 476 548 37,000  Level FlightAware
Wed 02:55:00 PM 23.3587 -147.4796 65° Northeast 476 548 37,000  Level FlightAware
Wed 02:56:00 PM 23.4153 -147.3492 65° Northeast 476 548 37,000  Level FlightAware
Wed 02:57:00 PM 23.4719 -147.2187 65° Northeast 476 548 37,000  Level FlightAware
Wed 02:58:00 PM 23.5284 -147.0881 65° Northeast 476 548 37,000  Level FlightAware
Wed 02:59:00 PM 23.5847 -146.9574 65° Northeast 476 548 37,000  Level FlightAware
Wed 03:00:00 PM 23.6410 -146.8266 65° Northeast 476 548 37,000  Level FlightAware
Wed 03:01:00 PM 23.6971 -146.6957 65° Northeast 476 548 37,000  Level FlightAware
Wed 03:02:00 PM 23.7531 -146.5647 65° Northeast 476 548 37,000  Level FlightAware
Wed 03:03:00 PM 23.8090 -146.4335 65° Northeast 476 548 37,000  Level FlightAware
Wed 03:04:00 PM 23.8648 -146.3022 65° Northeast 476 548 37,000  Level FlightAware
Wed 03:05:00 PM 23.9205 -146.1709 65° Northeast 476 548 37,000  Level FlightAware
Wed 03:06:00 PM 23.9761 -146.0394 65° Northeast 476 548 37,000  Level FlightAware
Wed 03:07:00 PM 24.0316 -145.9078 65° Northeast 476 548 37,000  Level FlightAware
Wed 03:08:00 PM 24.0869 -145.7760 65° Northeast 476 548 37,000  Level FlightAware
Wed 03:09:00 PM 24.1422 -145.6442 65° Northeast 476 548 37,000  Level FlightAware
Wed 03:10:00 PM 24.1973 -145.5123 65° Northeast 476 548 37,000  Level FlightAware
Wed 03:11:00 PM 24.2523 -145.3802 65° Northeast 476 548 37,000  Level FlightAware
Wed 03:12:00 PM 24.3072 -145.2480 66° East 476 548 37,000  Level FlightAware
Wed 03:13:00 PM 24.3620 -145.1157 66° East 476 548 37,000  Level FlightAware
Wed 03:14:00 PM 24.4167 -144.9833 66° East 476 548 37,000  Level FlightAware
Wed 03:15:00 PM 24.4725 -144.8478 66° East 476 548 37,000  Level FlightAware
Wed 03:16:00 PM 24.5281 -144.7122 66° East 476 548 37,000  Level FlightAware
Wed 03:16:37 PM 24.4167 -144.9833 66° East 468 539 37,000  Level Oakland Oceanic
Wed 03:17:00 PM 24.5837 -144.5764 66° East 476 548 37,000  Level FlightAware
Wed 03:18:00 PM 24.6391 -144.4406 66° East 476 548 37,000  Level FlightAware
Wed 03:19:00 PM 24.6944 -144.3046 66° East 476 548 37,000  Level FlightAware
Wed 03:20:00 PM 24.7495 -144.1685 66° East 476 548 37,000  Level FlightAware
Wed 03:21:00 PM 24.8046 -144.0323 66° East 476 548 37,000  Level FlightAware
Wed 03:22:00 PM 24.8423 -143.9387 66° East 468 539 37,000  Level FlightAware
Wed 03:23:00 PM 24.8950 -143.8076 66° East 468 539 37,000  Level FlightAware
Wed 03:24:00 PM 24.9476 -143.6764 66° East 468 539 37,000  Level FlightAware
Wed 03:25:00 PM 25.0000 -143.5451 66° East 468 539 37,000  Level FlightAware
Wed 03:26:00 PM 25.0524 -143.4137 66° East 468 539 37,000  Level FlightAware
Wed 03:27:00 PM 25.1046 -143.2822 66° East 468 539 37,000  Level FlightAware
Wed 03:28:00 PM 25.1567 -143.1505 66° East 468 539 37,000  Level FlightAware
Wed 03:29:00 PM 25.2087 -143.0188 66° East 468 539 37,000  Level FlightAware
Wed 03:30:00 PM 25.2606 -142.8869 67° East 468 539 37,000  Level FlightAware
Wed 03:31:00 PM 25.3124 -142.7549 67° East 468 539 37,000  Level FlightAware
Wed 03:32:00 PM 25.3640 -142.6228 67° East 468 539 37,000  Level FlightAware
Wed 03:33:00 PM 25.4156 -142.4906 67° East 468 539 37,000  Level FlightAware
Wed 03:34:00 PM 25.4670 -142.3583 67° East 468 539 37,000  Level FlightAware
Wed 03:35:00 PM 25.5183 -142.2259 67° East 468 539 37,000  Level FlightAware
Wed 03:36:00 PM 25.5694 -142.0933 67° East 468 539 37,000  Level FlightAware
Wed 03:37:00 PM 25.6205 -141.9607 67° East 468 539 37,000  Level FlightAware
Wed 03:38:00 PM 25.6714 -141.8279 67° East 468 539 37,000  Level FlightAware
Wed 03:39:00 PM 25.7222 -141.6950 67° East 468 539 37,000  Level FlightAware
Wed 03:40:00 PM 25.7729 -141.5620 67° East 468 539 37,000  Level FlightAware
Wed 03:41:00 PM 25.8235 -141.4289 67° East 468 539 37,000  Level FlightAware
Wed 03:42:00 PM 25.8740 -141.2957 67° East 468 539 37,000  Level FlightAware
Wed 03:43:00 PM 25.9243 -141.1623 67° East 468 539 37,000  Level FlightAware
Wed 03:44:00 PM 25.9745 -141.0289 67° East 468 539 37,000  Level FlightAware
Wed 03:45:00 PM 26.0246 -140.8953 67° East 468 539 37,000  Level FlightAware
Wed 03:46:00 PM 26.0746 -140.7616 67° East 468 539 37,000  Level FlightAware
Wed 03:47:00 PM 26.1244 -140.6279 68° East 468 539 37,000  Level FlightAware
Wed 03:48:00 PM 26.1741 -140.4939 68° East 468 539 37,000  Level FlightAware
Wed 03:49:00 PM 26.2237 -140.3599 68° East 468 539 37,000  Level FlightAware
Wed 03:50:00 PM 26.2732 -140.2258 68° East 468 539 37,000  Level FlightAware
Wed 03:51:00 PM 26.3225 -140.0915 68° East 468 539 37,000  Level FlightAware
Wed 03:52:00 PM 26.3717 -139.9572 68° East 468 539 37,000  Level FlightAware
Wed 03:53:00 PM 26.4208 -139.8227 68° East 468 539 37,000  Level FlightAware
Wed 03:54:00 PM 26.4698 -139.6881 68° East 468 539 37,000  Level FlightAware
Wed 03:55:00 PM 26.5186 -139.5534 68° East 468 539 37,000  Level FlightAware
Wed 03:56:00 PM 26.5673 -139.4186 68° East 468 539 37,000  Level FlightAware
Wed 03:57:00 PM 26.6159 -139.2836 68° East 468 539 37,000  Level FlightAware
Wed 03:58:00 PM 26.6644 -139.1486 68° East 468 539 37,000  Level FlightAware
Wed 03:59:00 PM 26.7127 -139.0134 68° East 468 539 37,000  Level FlightAware
Wed 04:00:00 PM 26.7609 -138.8781 68° East 468 539 37,000  Level FlightAware
Wed 04:01:00 PM 26.8090 -138.7427 68° East 468 539 37,000  Level FlightAware
Wed 04:02:00 PM 26.8569 -138.6072 68° East 468 539 37,000  Level FlightAware
Wed 04:03:00 PM 26.9048 -138.4716 68° East 468 539 37,000  Level FlightAware
Wed 04:04:00 PM 26.9524 -138.3358 69° East 468 539 37,000  Level FlightAware
Wed 04:05:00 PM 27.0000 -138.2000 69° East 468 539 37,000  Level FlightAware
Wed 04:06:00 PM 27.0480 -138.0621 69° East 468 539 37,000  Level FlightAware
Wed 04:07:00 PM 27.0958 -137.9241 69° East 468 539 37,000  Level FlightAware
Wed 04:08:00 PM 27.1435 -137.7859 69° East 468 539 37,000  Level FlightAware
Wed 04:08:23 PM 27.0000 -138.2000 69° East 457 526 37,000  Level Oakland Oceanic
Wed 04:09:00 PM 27.1911 -137.6476 69° East 468 539 37,000  Level FlightAware
Wed 04:10:00 PM 27.2385 -137.5092 69° East 468 539 37,000  Level FlightAware
Wed 04:11:00 PM 27.2858 -137.3707 69° East 468 539 37,000  Level FlightAware
Wed 04:12:00 PM 27.3329 -137.2321 69° East 468 539 37,000  Level FlightAware
Wed 04:13:00 PM 27.3800 -137.0934 69° East 468 539 37,000  Level FlightAware
Wed 04:14:00 PM 27.4109 -137.0017 69° East 457 526 37,000  Level FlightAware
Wed 04:15:00 PM 27.4560 -136.8680 69° East 457 526 37,000  Level FlightAware
Wed 04:16:00 PM 27.5009 -136.7342 69° East 457 526 37,000  Level FlightAware
Wed 04:17:00 PM 27.5456 -136.6003 69° East 457 526 37,000  Level FlightAware
Wed 04:18:00 PM 27.5903 -136.4663 69° East 457 526 37,000  Level FlightAware
Wed 04:19:00 PM 27.6348 -136.3322 69° East 457 526 37,000  Level FlightAware
Wed 04:20:00 PM 27.6792 -136.1979 70° East 457 526 37,000  Level FlightAware
Wed 04:21:00 PM 27.7234 -136.0636 70° East 457 526 37,000  Level FlightAware
Wed 04:22:00 PM 27.7675 -135.9291 70° East 457 526 37,000  Level FlightAware
Wed 04:23:00 PM 27.8115 -135.7946 70° East 457 526 37,000  Level FlightAware
Wed 04:24:00 PM 27.8554 -135.6599 70° East 457 526 37,000  Level FlightAware
Wed 04:25:00 PM 27.8991 -135.5251 70° East 457 526 37,000  Level FlightAware
Wed 04:26:00 PM 27.9427 -135.3902 70° East 457 526 37,000  Level FlightAware
Wed 04:27:00 PM 27.9862 -135.2552 70° East 457 526 37,000  Level FlightAware
Wed 04:28:00 PM 28.0296 -135.1201 70° East 457 526 37,000  Level FlightAware
Wed 04:29:00 PM 28.0728 -134.9849 70° East 457 526 37,000  Level FlightAware
Wed 04:30:00 PM 28.1158 -134.8496 70° East 457 526 37,000  Level FlightAware
Wed 04:31:00 PM 28.1588 -134.7141 70° East 457 526 37,000  Level FlightAware
Wed 04:32:00 PM 28.2016 -134.5786 70° East 457 526 37,000  Level FlightAware
Wed 04:33:00 PM 28.2443 -134.4429 70° East 457 526 37,000  Level FlightAware
Wed 04:34:00 PM 28.2868 -134.3072 70° East 457 526 37,000  Level FlightAware
Wed 04:35:00 PM 28.3292 -134.1713 71° East 457 526 37,000  Level FlightAware
Wed 04:36:00 PM 28.3715 -134.0353 71° East 457 526 37,000  Level FlightAware
Wed 04:37:00 PM 28.4136 -133.8993 71° East 457 526 37,000  Level FlightAware
Wed 04:38:00 PM 28.4556 -133.7631 71° East 457 526 37,000  Level FlightAware
Wed 04:39:00 PM 28.4975 -133.6268 71° East 457 526 37,000  Level FlightAware
Wed 04:40:00 PM 28.5392 -133.4904 71° East 457 526 37,000  Level FlightAware
Wed 04:41:00 PM 28.5808 -133.3539 71° East 457 526 37,000  Level FlightAware
Wed 04:42:00 PM 28.6222 -133.2172 71° East 457 526 37,000  Level FlightAware
Wed 04:43:00 PM 28.6636 -133.0805 71° East 457 526 37,000  Level FlightAware
Wed 04:44:00 PM 28.7048 -132.9436 71° East 457 526 37,000  Level FlightAware
Wed 04:45:00 PM 28.7458 -132.8067 71° East 457 526 37,000  Level FlightAware
Wed 04:46:00 PM 28.7867 -132.6696 71° East 457 526 37,000  Level FlightAware
Wed 04:47:00 PM 28.8275 -132.5325 71° East 457 526 37,000  Level FlightAware
Wed 04:48:00 PM 28.8681 -132.3952 71° East 457 526 37,000  Level FlightAware
Wed 04:49:00 PM 28.9086 -132.2578 71° East 457 526 37,000  Level FlightAware
Wed 04:50:00 PM 28.9489 -132.1204 71° East 457 526 37,000  Level FlightAware
Wed 04:51:00 PM 28.9891 -131.9828 72° East 457 526 37,000  Level FlightAware
Wed 04:52:00 PM 29.0292 -131.8451 72° East 457 526 37,000  Level FlightAware
Wed 04:53:00 PM 29.0691 -131.7073 72° East 457 526 37,000  Level FlightAware
Wed 04:54:00 PM 29.1089 -131.5694 72° East 457 526 37,000  Level FlightAware
Wed 04:55:00 PM 29.1486 -131.4314 72° East 457 526 37,000  Level FlightAware
Wed 04:56:00 PM 29.1881 -131.2932 72° East 457 526 37,000  Level FlightAware
Wed 04:57:00 PM 29.2274 -131.1550 72° East 457 526 37,000  Level FlightAware
Wed 04:58:00 PM 29.2667 -131.0167 72° East 457 526 37,000  Level FlightAware
Wed 04:59:00 PM 29.3065 -130.8758 72° East 457 526 37,000  Level FlightAware
Wed 04:59:44 PM 29.2667 -131.0167 72° East 457 526 37,000  Level Oakland Oceanic
Wed 05:00:00 PM 29.3462 -130.7348 72° East 457 526 37,000  Level FlightAware
Wed 05:01:00 PM 29.3857 -130.5937 72° East 457 526 37,000  Level FlightAware
Wed 05:02:00 PM 29.4251 -130.4525 72° East 457 526 37,000  Level FlightAware
Wed 05:03:00 PM 29.4643 -130.3112 72° East 457 526 37,000  Level FlightAware
Wed 05:04:00 PM 29.5033 -130.1698 72° East 457 526 37,000  Level FlightAware
Wed 05:05:00 PM 29.5423 -130.0283 72° East 457 526 37,000  Level FlightAware
Wed 05:06:00 PM 29.5371 -130.0470 72° East 457 526 37,000  Level FlightAware
Wed 05:07:00 PM 29.5752 -129.9080 73° East 457 526 37,000  Level FlightAware
Wed 05:08:00 PM 29.6131 -129.7690 73° East 457 526 37,000  Level FlightAware
Wed 05:09:00 PM 29.6509 -129.6298 73° East 457 526 37,000  Level FlightAware
Wed 05:10:00 PM 29.6885 -129.4906 73° East 457 526 37,000  Level FlightAware
Wed 05:11:00 PM 29.7260 -129.3512 73° East 457 526 37,000  Level FlightAware
Wed 05:12:00 PM 29.7633 -129.2117 73° East 457 526 37,000  Level FlightAware
Wed 05:13:00 PM 29.8005 -129.0721 73° East 457 526 37,000  Level FlightAware
Wed 05:14:00 PM 29.8376 -128.9325 73° East 457 526 37,000  Level FlightAware
Wed 05:15:00 PM 29.8745 -128.7927 73° East 457 526 37,000  Level FlightAware
Wed 05:16:00 PM 29.9112 -128.6528 73° East 457 526 37,000  Level FlightAware
Wed 05:17:00 PM 29.9478 -128.5128 73° East 457 526 37,000  Level FlightAware
Wed 05:18:00 PM 29.9843 -128.3727 73° East 457 526 37,000  Level FlightAware
Wed 05:19:00 PM 30.0206 -128.2325 73° East 457 526 37,000  Level FlightAware
Wed 05:20:00 PM 30.0567 -128.0922 73° East 457 526 37,000  Level FlightAware
Wed 05:21:00 PM 30.0928 -127.9518 74° East 457 526 37,000  Level FlightAware
Wed 05:22:00 PM 30.1286 -127.8113 74° East 457 526 37,000  Level FlightAware
Wed 05:23:00 PM 30.1643 -127.6707 74° East 457 526 37,000  Level FlightAware
Wed 05:24:00 PM 30.1999 -127.5300 74° East 457 526 37,000  Level FlightAware
Wed 05:25:00 PM 30.2353 -127.3892 74° East 457 526 37,000  Level FlightAware
Wed 05:26:00 PM 30.2705 -127.2483 74° East 457 526 37,000  Level FlightAware
Wed 05:27:00 PM 30.3057 -127.1073 74° East 457 526 37,000  Level FlightAware
Wed 05:28:00 PM 30.3406 -126.9662 74° East 457 526 37,000  Level FlightAware
Wed 05:29:00 PM 30.3754 -126.8250 74° East 457 526 37,000  Level FlightAware
Wed 05:30:00 PM 30.4101 -126.6837 74° East 457 526 37,000  Level FlightAware
Wed 05:31:00 PM 30.4446 -126.5423 74° East 457 526 37,000  Level FlightAware
Wed 05:32:00 PM 30.4789 -126.4008 74° East 457 526 37,000  Level FlightAware
Wed 05:33:00 PM 30.5131 -126.2592 74° East 457 526 37,000  Level FlightAware
Wed 05:34:00 PM 30.5471 -126.1174 74° East 457 526 37,000  Level FlightAware
Wed 05:35:00 PM 30.5810 -125.9756 75° East 457 526 37,000  Level FlightAware
Wed 05:36:00 PM 30.6148 -125.8337 75° East 457 526 37,000  Level FlightAware
Wed 05:37:00 PM 30.6483 -125.6917 75° East 457 526 37,000  Level FlightAware
Wed 05:38:00 PM 30.6818 -125.5496 75° East 457 526 37,000  Level FlightAware
Wed 05:39:00 PM 30.7150 -125.4074 75° East 457 526 37,000  Level FlightAware
Wed 05:40:00 PM 30.7482 -125.2651 75° East 457 526 37,000  Level FlightAware
Wed 05:41:00 PM 30.7811 -125.1227 75° East 457 526 37,000  Level FlightAware
Wed 05:42:00 PM 30.8139 -124.9802 75° East 457 526 37,000  Level FlightAware
Wed 05:43:00 PM 30.8466 -124.8376 75° East 457 526 37,000  Level FlightAware
Wed 05:44:00 PM 30.8791 -124.6950 75° East 457 526 37,000  Level FlightAware
Wed 05:45:00 PM 30.9114 -124.5522 75° East 457 526 37,000  Level FlightAware
Wed 05:46:00 PM 30.9436 -124.4093 75° East 457 526 37,000  Level FlightAware
Wed 05:47:00 PM 30.9756 -124.2663 75° East 457 526 37,000  Level FlightAware
Wed 05:48:00 PM 31.0075 -124.1232 75° East 457 526 37,000  Level FlightAware
Wed 05:49:00 PM 31.0392 -123.9801 76° East 457 526 37,000  Level FlightAware
Wed 05:50:00 PM 31.0707 -123.8368 76° East 457 526 37,000  Level FlightAware
Wed 05:51:00 PM 31.1021 -123.6935 76° East 457 526 37,000  Level FlightAware
Wed 05:52:00 PM 31.1333 -123.5500 77° East 457 526 37,000  Level FlightAware
Wed 05:53:00 PM 31.1622 -123.4073 77° East 457 526 37,000  Level FlightAware
Wed 05:53:59 PM 31.1536 -123.3803 77° East 480 552 37,000  Level Los Center
Wed 05:54:00 PM 31.1910 -123.2644 77° East 457 526 37,000  Level FlightAware
Wed 05:55:00 PM 31.2195 -123.1215 77° East 457 526 37,000  Level FlightAware
Wed 05:55:02 PM 31.1875 -123.2389 74° East 460 529 37,000  Level Los Center
Wed 05:56:00 PM 31.2479 -122.9785 77° East 457 526 37,000  Level FlightAware
Wed 05:56:04 PM 31.2506 -123.0703 66° East 469 540 37,000  Level Los Center
Wed 05:57:00 PM 31.2762 -122.8355 77° East 457 526 37,000  Level FlightAware
Wed 05:57:06 PM 31.3131 -122.9389 61° Northeast 471 542 37,000  Level Los Center
Wed 05:58:00 PM 31.3043 -122.6923 77° East 457 526 37,000  Level FlightAware
Wed 05:58:08 PM 31.3764 -122.8108 60° Northeast 467 537 37,000  Level Los Center
Wed 05:59:00 PM 31.3322 -122.5490 77° East 457 526 37,000  Level FlightAware
Wed 05:59:10 PM 31.4372 -122.6808 61° Northeast 463 533 37,000  Level Los Center
Wed 06:00:12 PM 31.4986 -122.5478 62° Northeast 463 533 37,000  Level Los Center
Wed 06:01:14 PM 31.5722 -122.3878 62° Northeast 464 534 37,000  Level Los Center
Wed 06:02:16 PM 31.6331 -122.2567 61° Northeast 462 532 37,000  Level Los Center
Wed 06:03:19 PM 31.6942 -122.1233 62° Northeast 462 532 37,000  Level Los Center
Wed 06:04:21 PM 31.7547 -121.9897 62° Northeast 463 533 37,000  Level Los Center
Wed 06:05:23 PM 31.8158 -121.8553 62° Northeast 465 535 37,000  Level Los Center
Wed 06:06:24 PM 31.8639 -121.7472 62° Northeast 466 536 37,000  Level Los Center
Wed 06:07:27 PM 31.9511 -121.5700 60° Northeast 454 522 37,000  Level Los Center
Wed 06:08:29 PM 32.0106 -121.4308 63° Northeast 471 542 37,000  Level Los Center
Wed 06:09:31 PM 32.0725 -121.2967 61° Northeast 471 542 37,000  Level Los Center
Wed 06:10:33 PM 32.1317 -121.1583 63° Northeast 471 542 37,000  Level Los Center
Wed 06:11:47 PM 32.1922 -121.0203 63° Northeast 474 545 37,000  Level Los Center
Wed 06:12:50 PM 32.2750 -120.8214 64° Northeast 481 554 37,000  Level Los Center
Wed 06:13:53 PM 32.3339 -120.6847 63° Northeast 476 548 37,000  Level Los Center
Wed 06:14:54 PM 32.3931 -120.5503 62° Northeast 468 539 37,000  Level Los Center
Wed 06:15:56 PM 32.4519 -120.4169 62° Northeast 463 533 37,000  Level Los Center
Wed 06:16:59 PM 32.5106 -120.2789 63° Northeast 466 536 37,000  Level Los Center
Wed 06:18:01 PM 32.5678 -120.1500 62° Northeast 458 527 37,000  Level Los Center
Wed 06:19:03 PM 32.6375 -119.9856 63° Northeast 464 534 37,000 -726 Level Los Center
Wed 06:20:05 PM 32.6939 -119.8503 64° Northeast 460 529 35,500 -2,710 Descending Los Center
Wed 06:21:07 PM 32.7492 -119.7197 63° Northeast 446 513 31,400 -3,919 Descending Los Center
Wed 06:22:09 PM 32.8050 -119.5881 63° Northeast 447 514 27,400 -2,903 Descending Los Center
Wed 06:23:11 PM 32.8581 -119.4592 64° Northeast 437 503 25,400 -2,129 Descending Los Center
Wed 06:24:13 PM 32.9208 -119.3103 63° Northeast 422 486 23,000 -2,129 Descending Los Center
Wed 06:25:15 PM 32.9714 -119.1914 63° Northeast 406 467 21,000 -1,557 Descending Los Center
Wed 06:31:17 PM 33.2380 -118.6000 63° Northeast 339 390 12,000 -1,360 Descending FlightAware
Wed 06:31:52 PM 33.2860 -118.5380 47° Northeast 331 381 12,000  Level FlightAware
Wed 06:32:37 PM 33.3340 -118.4760 47° Northeast 333 383 12,000  Level FlightAware
Wed 06:33:22 PM 33.3650 -118.4040 63° Northeast 315 362 12,000  Level FlightAware
Wed 06:34:02 PM 33.3750 -118.3350 80° East 311 358 12,000  Level FlightAware
Wed 06:34:47 PM 33.3860 -118.2610 80° East 309 356 12,000  Level FlightAware
Wed 06:35:27 PM 33.3960 -118.1950 80° East 304 350 12,000  Level FlightAware
Wed 06:35:42 PM 33.4030 -118.1690 72° East 296 341 12,000 -400 Level FlightAware
Wed 06:35:57 PM 33.4130 -118.1510 56° Northeast 298 343 11,800 -1,200 Descending FlightAware
Wed 06:36:37 PM 33.4590 -118.1100 37° Northeast 300 345 10,900 -1,275 Descending FlightAware
Wed 06:37:17 PM 33.5050 -118.0730 34° Northeast 295 339 10,100 -1,114 Descending FlightAware
Wed 06:37:47 PM 33.5390 -118.0480 32° Northeast 285 328 9,600 -1,200 Descending FlightAware
Wed 06:38:17 PM 33.5760 -118.0280 24° Northeast 293 337 8,900 -1,350 Descending FlightAware
Wed 06:38:27 PM 33.5900 -118.0280 360° North 295 339 8,700 -1,200 Descending FlightAware
Wed 06:38:57 PM 33.6280 -118.0330 354° North 276 318 8,100 -1,100 Descending FlightAware
Wed 06:39:27 PM 33.6640 -118.0430 347° North 267 307 7,600 -982 Descending FlightAware
Wed 06:39:52 PM 33.6960 -118.0540 344° North 265 305 7,200 -655 Descending FlightAware
Wed 06:40:22 PM 33.7320 -118.0670 343° North 265 305 7,000 -327 Descending FlightAware
Wed 06:40:47 PM 33.7590 -118.0760 345° North 264 304 6,900 -545 Descending FlightAware
Wed 06:41:17 PM 33.7950 -118.0810 353° North 252 290 6,500 -900 Descending FlightAware
Wed 06:41:47 PM 33.8290 -118.0820 359° North 245 282 6,000 -1,200 Descending FlightAware
Wed 06:42:12 PM 33.8590 -118.0830 358° North 242 278 5,400 -1,200 Descending FlightAware
Wed 06:42:37 PM 33.8860 -118.0830 360° North 238 274 5,000 -764 Descending FlightAware
Wed 06:43:07 PM 33.9170 -118.0850 357° North 215 247 4,700 -667 Descending FlightAware
Wed 06:43:22 PM 33.9290 -118.0950 325° Northwest 204 235 4,500 -933 Descending FlightAware
Wed 06:43:52 PM 33.9420 -118.1260 297° West 203 234 4,000 -1,091 Descending FlightAware
Wed 06:44:17 PM 33.9510 -118.1510 293° West 204 235 3,500 -943 Descending FlightAware
Wed 06:45:02 PM 33.9490 -118.2020 267° West 193 222 2,900 -771 Descending FlightAware
Wed 06:45:27 PM 33.9470 -118.2260 264° West 185 213 2,600 -327 Descending FlightAware
Wed 06:45:57 PM 33.9440 -118.2570 263° West 189 217 2,600 -436 Level FlightAware
Wed 06:46:22 PM 33.9410 -118.2850 263° West 190 219 2,200 -655 Descending FlightAware
Wed 06:46:52 PM 33.9400 -118.3020 266° West 177 204 2,000 -655 Descending FlightAware
Wed 06:47:17 PM 33.9370 -118.3250 261° West 154 177 1,600 -960 Descending FlightAware
Wed 06:47:42 PM 33.9360 -118.3460 267° West 137 158 1,200 -480 Descending FlightAware
Wed 06:48:07 PM 33.9340 -118.3640 262° West 137 158 1,200 -600 Level FlightAware
Wed 06:48:42 PM 33.9320 -118.3870 264° West 132 152 600 -923 Descending FlightAware
Wed 06:49:12 PM 33.9300 -118.4100 264° West 130 150 200 -436 Descending FlightAware
Wed 06:49:37 PM 33.9280 -118.4270 262° West 130 150 200  Level FlightAware

Login

Don't have an account? Register now (free) for customized features, flight alerts, and more!